sensor_id;sensor_type;location;lat;lon;timestamp;pressure;altitude;pressure_sealevel;temperature;humidity
31062;BME280;17724;53.546;9.974;2022-07-25T00:02:28;101220.47;;;23.57;67.56
31062;BME280;17724;53.546;9.974;2022-07-25T00:06:29;101209.75;;;23.59;67.11
31062;BME280;17724;53.546;9.974;2022-07-25T00:10:29;101205.50;;;23.44;66.54
31062;BME280;17724;53.546;9.974;2022-07-25T00:14:29;101209.00;;;23.32;66.71
31062;BME280;17724;53.546;9.974;2022-07-25T00:18:30;101203.47;;;23.06;67.34
31062;BME280;17724;53.546;9.974;2022-07-25T00:22:30;101203.06;;;23.25;66.33
31062;BME280;17724;53.546;9.974;2022-07-25T00:26:31;101201.78;;;23.23;66.05
31062;BME280;17724;53.546;9.974;2022-07-25T00:30:31;101192.06;;;23.11;66.48
31062;BME280;17724;53.546;9.974;2022-07-25T00:34:32;101196.69;;;23.07;66.75
31062;BME280;17724;53.546;9.974;2022-07-25T00:38:32;101193.75;;;22.95;67.56
31062;BME280;17724;53.546;9.974;2022-07-25T00:42:33;101186.97;;;22.87;67.82
31062;BME280;17724;53.546;9.974;2022-07-25T00:46:36;101190.78;;;22.83;68.31
31062;BME280;17724;53.546;9.974;2022-07-25T00:50:37;101198.53;;;22.69;67.96
31062;BME280;17724;53.546;9.974;2022-07-25T00:54:37;101188.81;;;22.75;68.03
31062;BME280;17724;53.546;9.974;2022-07-25T00:58:38;101187.47;;;22.72;67.48
31062;BME280;17724;53.546;9.974;2022-07-25T01:02:39;101183.84;;;22.63;67.68
31062;BME280;17724;53.546;9.974;2022-07-25T01:06:40;101180.88;;;22.59;67.33
31062;BME280;17724;53.546;9.974;2022-07-25T01:10:41;101172.47;;;22.42;67.73
31062;BME280;17724;53.546;9.974;2022-07-25T01:14:41;101172.63;;;22.46;67.03
31062;BME280;17724;53.546;9.974;2022-07-25T01:18:41;101173.16;;;22.48;66.34
31062;BME280;17724;53.546;9.974;2022-07-25T01:22:42;101173.13;;;22.65;65.92
31062;BME280;17724;53.546;9.974;2022-07-25T01:26:43;101164.56;;;22.61;65.10
31062;BME280;17724;53.546;9.974;2022-07-25T01:30:43;101170.97;;;22.62;64.38
31062;BME280;17724;53.546;9.974;2022-07-25T01:34:44;101168.34;;;22.66;63.85
31062;BME280;17724;53.546;9.974;2022-07-25T01:38:45;101161.25;;;22.77;63.46
31062;BME280;17724;53.546;9.974;2022-07-25T01:42:45;101160.25;;;22.73;63.23
31062;BME280;17724;53.546;9.974;2022-07-25T01:46:45;101142.78;;;22.67;63.23
31062;BME280;17724;53.546;9.974;2022-07-25T01:50:46;101146.25;;;22.64;63.04
31062;BME280;17724;53.546;9.974;2022-07-25T01:54:46;101135.38;;;22.62;62.95
31062;BME280;17724;53.546;9.974;2022-07-25T01:58:47;101141.78;;;22.72;62.58
31062;BME280;17724;53.546;9.974;2022-07-25T02:02:47;101135.72;;;22.52;63.29
31062;BME280;17724;53.546;9.974;2022-07-25T02:06:48;101130.75;;;22.58;63.48
31062;BME280;17724;53.546;9.974;2022-07-25T02:10:48;101126.28;;;22.74;63.93
31062;BME280;17724;53.546;9.974;2022-07-25T02:14:49;101119.72;;;22.70;62.72
31062;BME280;17724;53.546;9.974;2022-07-25T02:18:51;101109.16;;;22.67;62.17
31062;BME280;17724;53.546;9.974;2022-07-25T02:22:51;101099.59;;;22.59;62.35
31062;BME280;17724;53.546;9.974;2022-07-25T02:26:51;101094.31;;;22.49;61.79
31062;BME280;17724;53.546;9.974;2022-07-25T02:30:52;101090.69;;;22.49;61.43
31062;BME280;17724;53.546;9.974;2022-07-25T02:34:52;101099.28;;;22.52;61.89
31062;BME280;17724;53.546;9.974;2022-07-25T02:38:53;101088.09;;;22.35;61.51
31062;BME280;17724;53.546;9.974;2022-07-25T02:42:53;101078.69;;;22.31;61.21
31062;BME280;17724;53.546;9.974;2022-07-25T02:46:53;101075.53;;;22.50;61.00
31062;BME280;17724;53.546;9.974;2022-07-25T02:50:54;101071.44;;;22.21;61.69
31062;BME280;17724;53.546;9.974;2022-07-25T02:54:54;101063.38;;;22.28;61.46
31062;BME280;17724;53.546;9.974;2022-07-25T02:58:55;101071.28;;;22.18;61.29
31062;BME280;17724;53.546;9.974;2022-07-25T03:02:56;101064.03;;;22.17;61.12
31062;BME280;17724;53.546;9.974;2022-07-25T03:06:57;101055.16;;;22.15;60.95
31062;BME280;17724;53.546;9.974;2022-07-25T03:10:57;101061.38;;;22.11;60.82
31062;BME280;17724;53.546;9.974;2022-07-25T03:14:59;101055.16;;;22.15;61.21
31062;BME280;17724;53.546;9.974;2022-07-25T03:18:59;101046.06;;;22.00;60.42
31062;BME280;17724;53.546;9.974;2022-07-25T03:23:00;101037.47;;;22.05;60.31
31062;BME280;17724;53.546;9.974;2022-07-25T03:27:00;101033.88;;;22.13;60.05
31062;BME280;17724;53.546;9.974;2022-07-25T03:31:01;101032.22;;;21.95;60.26
31062;BME280;17724;53.546;9.974;2022-07-25T03:35:02;101020.50;;;22.02;59.95
31062;BME280;17724;53.546;9.974;2022-07-25T03:39:02;101023.63;;;22.09;59.46
31062;BME280;17724;53.546;9.974;2022-07-25T03:43:03;101019.88;;;21.96;59.18
31062;BME280;17724;53.546;9.974;2022-07-25T03:47:04;101013.28;;;21.75;59.97
31062;BME280;17724;53.546;9.974;2022-07-25T03:51:05;101004.06;;;21.92;58.81
31062;BME280;17724;53.546;9.974;2022-07-25T03:55:06;101007.16;;;21.90;59.07
31062;BME280;17724;53.546;9.974;2022-07-25T03:59:09;101001.75;;;22.02;58.82
31062;BME280;17724;53.546;9.974;2022-07-25T04:03:10;100994.03;;;21.91;59.37
31062;BME280;17724;53.546;9.974;2022-07-25T04:07:10;100991.03;;;21.96;59.81
31062;BME280;17724;53.546;9.974;2022-07-25T04:11:11;100984.44;;;21.74;60.80
31062;BME280;17724;53.546;9.974;2022-07-25T04:15:11;100987.09;;;21.79;60.21
31062;BME280;17724;53.546;9.974;2022-07-25T04:19:12;100975.38;;;21.77;60.29
31062;BME280;17724;53.546;9.974;2022-07-25T04:23:12;100966.81;;;21.74;59.19
31062;BME280;17724;53.546;9.974;2022-07-25T04:27:13;100962.06;;;21.65;58.89
31062;BME280;17724;53.546;9.974;2022-07-25T04:31:13;100957.44;;;21.70;59.34
31062;BME280;17724;53.546;9.974;2022-07-25T04:35:14;100948.72;;;21.80;58.42
31062;BME280;17724;53.546;9.974;2022-07-25T04:39:14;100941.16;;;21.80;57.65
31062;BME280;17724;53.546;9.974;2022-07-25T04:43:14;100942.16;;;21.76;57.80
31062;BME280;17724;53.546;9.974;2022-07-25T04:47:15;100937.72;;;21.75;57.84
31062;BME280;17724;53.546;9.974;2022-07-25T04:51:16;100931.25;;;21.74;57.93
31062;BME280;17724;53.546;9.974;2022-07-25T04:55:17;100922.56;;;21.67;58.41
31062;BME280;17724;53.546;9.974;2022-07-25T04:59:17;100917.63;;;21.55;58.34
31062;BME280;17724;53.546;9.974;2022-07-25T05:03:18;100913.63;;;21.74;58.22
31062;BME280;17724;53.546;9.974;2022-07-25T05:07:18;100904.91;;;21.84;57.90
31062;BME280;17724;53.546;9.974;2022-07-25T05:11:19;100903.75;;;21.85;57.75
31062;BME280;17724;53.546;9.974;2022-07-25T05:15:19;100897.84;;;21.86;57.75
31062;BME280;17724;53.546;9.974;2022-07-25T05:19:20;100895.84;;;21.96;58.06
31062;BME280;17724;53.546;9.974;2022-07-25T05:23:20;100882.47;;;22.01;57.82
31062;BME280;17724;53.546;9.974;2022-07-25T05:27:21;100881.31;;;21.94;57.48
31062;BME280;17724;53.546;9.974;2022-07-25T05:31:22;100879.19;;;21.99;56.96
31062;BME280;17724;53.546;9.974;2022-07-25T05:35:22;100875.22;;;22.00;57.24
31062;BME280;17724;53.546;9.974;2022-07-25T05:39:22;100870.56;;;22.22;56.19
31062;BME280;17724;53.546;9.974;2022-07-25T05:43:23;100868.84;;;22.38;56.79
31062;BME280;17724;53.546;9.974;2022-07-25T05:47:23;100853.59;;;22.27;56.28
31062;BME280;17724;53.546;9.974;2022-07-25T05:51:24;100854.16;;;22.41;56.60
31062;BME280;17724;53.546;9.974;2022-07-25T05:55:24;100850.03;;;22.47;56.56
31062;BME280;17724;53.546;9.974;2022-07-25T05:59:25;100851.38;;;22.41;56.49
31062;BME280;17724;53.546;9.974;2022-07-25T06:03:25;100847.63;;;22.58;56.75
31062;BME280;17724;53.546;9.974;2022-07-25T06:07:26;100836.56;;;22.61;56.11
31062;BME280;17724;53.546;9.974;2022-07-25T06:11:26;100837.63;;;22.78;56.01
31062;BME280;17724;53.546;9.974;2022-07-25T06:15:27;100826.94;;;23.01;55.80
31062;BME280;17724;53.546;9.974;2022-07-25T06:19:27;100822.91;;;23.31;54.94
31062;BME280;17724;53.546;9.974;2022-07-25T06:23:30;100821.44;;;23.25;54.46
31062;BME280;17724;53.546;9.974;2022-07-25T06:27:30;100817.69;;;23.42;55.05
31062;BME280;17724;53.546;9.974;2022-07-25T06:31:31;100823.53;;;23.49;54.41
31062;BME280;17724;53.546;9.974;2022-07-25T06:35:31;100818.94;;;23.66;54.43
31062;BME280;17724;53.546;9.974;2022-07-25T06:39:31;100811.28;;;23.87;54.09
31062;BME280;17724;53.546;9.974;2022-07-25T06:43:32;100817.38;;;23.89;53.46
31062;BME280;17724;53.546;9.974;2022-07-25T06:47:32;100809.31;;;24.12;53.05
31062;BME280;17724;53.546;9.974;2022-07-25T06:51:33;100802.78;;;24.32;52.68
31062;BME280;17724;53.546;9.974;2022-07-25T06:55:33;100801.16;;;24.44;51.99
31062;BME280;17724;53.546;9.974;2022-07-25T06:59:34;100807.13;;;24.54;52.10
31062;BME280;17724;53.546;9.974;2022-07-25T07:03:34;100796.44;;;24.72;52.31
31062;BME280;17724;53.546;9.974;2022-07-25T07:07:37;100797.03;;;24.78;52.35
31062;BME280;17724;53.546;9.974;2022-07-25T07:11:37;100794.06;;;24.87;51.81
31062;BME280;17724;53.546;9.974;2022-07-25T07:15:38;100781.97;;;25.11;51.35
31062;BME280;17724;53.546;9.974;2022-07-25T07:19:43;100780.34;;;25.25;50.19
31062;BME280;17724;53.546;9.974;2022-07-25T07:23:43;100774.75;;;25.41;49.76
31062;BME280;17724;53.546;9.974;2022-07-25T07:27:44;100771.91;;;25.53;49.56
31062;BME280;17724;53.546;9.974;2022-07-25T07:31:44;100760.09;;;25.64;48.82
31062;BME280;17724;53.546;9.974;2022-07-25T07:35:45;100757.78;;;25.82;49.22
31062;BME280;17724;53.546;9.974;2022-07-25T07:39:45;100754.50;;;25.95;48.93
31062;BME280;17724;53.546;9.974;2022-07-25T07:43:45;100748.94;;;26.15;48.54
31062;BME280;17724;53.546;9.974;2022-07-25T07:47:48;100740.09;;;26.48;47.74
31062;BME280;17724;53.546;9.974;2022-07-25T07:51:48;100732.47;;;26.68;47.29
31062;BME280;17724;53.546;9.974;2022-07-25T07:55:49;100729.06;;;26.78;47.19
31062;BME280;17724;53.546;9.974;2022-07-25T07:59:54;100723.13;;;26.83;46.17
31062;BME280;17724;53.546;9.974;2022-07-25T08:03:54;100716.94;;;26.97;45.41
31062;BME280;17724;53.546;9.974;2022-07-25T08:07:55;100715.34;;;27.15;45.39
31062;BME280;17724;53.546;9.974;2022-07-25T08:11:55;100710.16;;;27.40;45.15
31062;BME280;17724;53.546;9.974;2022-07-25T08:15:57;100715.03;;;27.63;43.72
31062;BME280;17724;53.546;9.974;2022-07-25T08:19:58;100693.75;;;27.69;44.01
31062;BME280;17724;53.546;9.974;2022-07-25T08:23:58;100701.72;;;27.86;43.50
31062;BME280;17724;53.546;9.974;2022-07-25T08:27:59;100694.72;;;28.03;43.28
31062;BME280;17724;53.546;9.974;2022-07-25T08:31:59;100697.84;;;28.21;43.55
31062;BME280;17724;53.546;9.974;2022-07-25T08:36:00;100675.41;;;28.35;42.79
31062;BME280;17724;53.546;9.974;2022-07-25T08:40:00;100679.75;;;28.56;43.11
31062;BME280;17724;53.546;9.974;2022-07-25T08:44:01;100667.47;;;28.75;42.60
31062;BME280;17724;53.546;9.974;2022-07-25T08:48:02;100662.13;;;29.00;42.82
31062;BME280;17724;53.546;9.974;2022-07-25T08:52:02;100651.56;;;29.34;40.73
31062;BME280;17724;53.546;9.974;2022-07-25T08:56:04;100647.44;;;29.65;39.58
31062;BME280;17724;53.546;9.974;2022-07-25T09:00:06;100643.84;;;29.75;38.76
31062;BME280;17724;53.546;9.974;2022-07-25T09:04:07;100640.44;;;30.07;38.59
31062;BME280;17724;53.546;9.974;2022-07-25T09:08:12;100642.22;;;30.29;38.19
31062;BME280;17724;53.546;9.974;2022-07-25T09:12:15;100635.38;;;30.41;38.35
31062;BME280;17724;53.546;9.974;2022-07-25T09:16:15;100635.75;;;30.36;37.77
31062;BME280;17724;53.546;9.974;2022-07-25T09:20:16;100629.63;;;30.27;37.99
31062;BME280;17724;53.546;9.974;2022-07-25T09:24:17;100625.28;;;30.51;38.21
31062;BME280;17724;53.546;9.974;2022-07-25T09:28:21;100618.88;;;30.72;38.05
31062;BME280;17724;53.546;9.974;2022-07-25T09:32:22;100613.22;;;30.75;37.08
31062;BME280;17724;53.546;9.974;2022-07-25T09:36:23;100614.50;;;30.96;36.81
31062;BME280;17724;53.546;9.974;2022-07-25T09:40:24;100612.09;;;30.98;36.82
31062;BME280;17724;53.546;9.974;2022-07-25T09:44:24;100614.13;;;31.01;36.38
31062;BME280;17724;53.546;9.974;2022-07-25T09:48:31;100611.66;;;30.96;36.13
31062;BME280;17724;53.546;9.974;2022-07-25T09:52:33;100598.31;;;30.96;36.22
31062;BME280;17724;53.546;9.974;2022-07-25T09:56:33;100599.91;;;31.08;36.54
31062;BME280;17724;53.546;9.974;2022-07-25T10:00:34;100594.25;;;31.04;36.82
31062;BME280;17724;53.546;9.974;2022-07-25T10:04:47;100598.72;;;31.16;36.44
31062;BME280;17724;53.546;9.974;2022-07-25T10:08:52;100586.53;;;31.15;36.65
31062;BME280;17724;53.546;9.974;2022-07-25T10:13:10;100584.50;;;31.27;35.90
31062;BME280;17724;53.546;9.974;2022-07-25T10:17:19;100584.13;;;31.21;35.45
31062;BME280;17724;53.546;9.974;2022-07-25T10:21:22;100588.19;;;31.16;36.14
31062;BME280;17724;53.546;9.974;2022-07-25T10:25:22;100585.34;;;31.63;36.07
31062;BME280;17724;53.546;9.974;2022-07-25T10:29:32;100582.13;;;31.47;35.87
31062;BME280;17724;53.546;9.974;2022-07-25T10:33:40;100576.81;;;31.16;35.91
31062;BME280;17724;53.546;9.974;2022-07-25T10:37:43;100576.41;;;31.25;35.92
31062;BME280;17724;53.546;9.974;2022-07-25T10:41:53;100565.47;;;31.31;36.15
31062;BME280;17724;53.546;9.974;2022-07-25T10:45:58;100566.22;;;30.99;36.28
31062;BME280;17724;53.546;9.974;2022-07-25T10:50:00;100558.13;;;31.01;36.17
31062;BME280;17724;53.546;9.974;2022-07-25T10:54:14;100563.81;;;31.01;36.12
31062;BME280;17724;53.546;9.974;2022-07-25T10:58:14;100551.22;;;31.24;36.19
31062;BME280;17724;53.546;9.974;2022-07-25T11:02:16;100556.53;;;31.00;36.03
31062;BME280;17724;53.546;9.974;2022-07-25T11:06:28;100550.81;;;30.82;37.04
31062;BME280;17724;53.546;9.974;2022-07-25T11:10:29;100549.53;;;30.69;36.96
31062;BME280;17724;53.546;9.974;2022-07-25T11:14:32;100555.94;;;30.48;37.30
31062;BME280;17724;53.546;9.974;2022-07-25T11:18:40;100539.69;;;30.31;36.72
31062;BME280;17724;53.546;9.974;2022-07-25T11:22:40;100547.78;;;30.36;37.04
31062;BME280;17724;53.546;9.974;2022-07-25T11:26:48;100549.47;;;30.48;37.28
31062;BME280;17724;53.546;9.974;2022-07-25T11:30:49;100546.69;;;30.65;36.85
31062;BME280;17724;53.546;9.974;2022-07-25T11:34:52;100538.97;;;30.66;36.96
31062;BME280;17724;53.546;9.974;2022-07-25T11:38:53;100540.19;;;30.65;36.47
31062;BME280;17724;53.546;9.974;2022-07-25T11:42:55;100533.78;;;30.89;36.09
31062;BME280;17724;53.546;9.974;2022-07-25T11:46:56;100528.50;;;30.99;36.09
31062;BME280;17724;53.546;9.974;2022-07-25T11:50:57;100527.69;;;30.95;35.63
31062;BME280;17724;53.546;9.974;2022-07-25T11:55:09;100513.91;;;31.14;35.53
31062;BME280;17724;53.546;9.974;2022-07-25T11:59:10;100513.91;;;31.18;35.47
31062;BME280;17724;53.546;9.974;2022-07-25T12:03:15;100496.47;;;31.34;35.14
31062;BME280;17724;53.546;9.974;2022-07-25T12:07:16;100486.69;;;31.60;34.52
31062;BME280;17724;53.546;9.974;2022-07-25T12:11:19;100473.31;;;31.50;34.46
31062;BME280;17724;53.546;9.974;2022-07-25T12:15:24;100480.19;;;31.56;34.10
31062;BME280;17724;53.546;9.974;2022-07-25T12:19:24;100476.50;;;31.73;33.78
31062;BME280;17724;53.546;9.974;2022-07-25T12:23:25;100479.72;;;31.86;34.12
31062;BME280;17724;53.546;9.974;2022-07-25T12:27:25;100480.16;;;31.59;34.71
31062;BME280;17724;53.546;9.974;2022-07-25T12:31:26;100475.72;;;31.51;34.08
31062;BME280;17724;53.546;9.974;2022-07-25T12:35:27;100472.94;;;31.44;34.03
31062;BME280;17724;53.546;9.974;2022-07-25T12:39:28;100482.66;;;31.22;34.56
31062;BME280;17724;53.546;9.974;2022-07-25T12:43:28;100501.75;;;31.28;34.90
31062;BME280;17724;53.546;9.974;2022-07-25T12:47:29;100486.72;;;31.10;34.69
31062;BME280;17724;53.546;9.974;2022-07-25T12:51:29;100488.75;;;31.02;34.87
31062;BME280;17724;53.546;9.974;2022-07-25T12:55:29;100481.03;;;30.96;35.61
31062;BME280;17724;53.546;9.974;2022-07-25T12:59:30;100480.63;;;30.79;35.80
31062;BME280;17724;53.546;9.974;2022-07-25T13:03:30;100486.66;;;30.67;35.99
31062;BME280;17724;53.546;9.974;2022-07-25T13:07:32;100485.84;;;30.59;36.48
31062;BME280;17724;53.546;9.974;2022-07-25T13:11:32;100492.38;;;30.74;36.75
31062;BME280;17724;53.546;9.974;2022-07-25T13:15:33;100481.84;;;30.78;36.67
31062;BME280;17724;53.546;9.974;2022-07-25T13:19:35;100477.38;;;30.91;36.76
31062;BME280;17724;53.546;9.974;2022-07-25T13:23:36;100480.22;;;30.88;36.66
31062;BME280;17724;53.546;9.974;2022-07-25T13:27:36;100483.88;;;30.92;37.21
31062;BME280;17724;53.546;9.974;2022-07-25T13:31:37;100482.25;;;30.87;37.62
31062;BME280;17724;53.546;9.974;2022-07-25T13:35:38;100485.09;;;30.77;37.60
31062;BME280;17724;53.546;9.974;2022-07-25T13:39:39;100472.91;;;30.80;37.93
31062;BME280;17724;53.546;9.974;2022-07-25T13:43:41;100468.47;;;30.82;38.01
31062;BME280;17724;53.546;9.974;2022-07-25T13:47:42;100478.22;;;30.85;37.97
31062;BME280;17724;53.546;9.974;2022-07-25T13:51:42;100475.75;;;30.83;38.28
31062;BME280;17724;53.546;9.974;2022-07-25T13:55:44;100477.41;;;30.77;40.04
31062;BME280;17724;53.546;9.974;2022-07-25T13:59:45;100484.69;;;30.75;39.74
31062;BME280;17724;53.546;9.974;2022-07-25T14:03:45;100479.38;;;30.62;40.06
31062;BME280;17724;53.546;9.974;2022-07-25T14:07:45;100470.84;;;30.66;41.00
31062;BME280;17724;53.546;9.974;2022-07-25T14:11:46;100459.91;;;30.72;41.94
31062;BME280;17724;53.546;9.974;2022-07-25T14:15:47;100474.88;;;30.51;41.70
31062;BME280;17724;53.546;9.974;2022-07-25T14:19:47;100476.50;;;30.55;41.38
31062;BME280;17724;53.546;9.974;2022-07-25T14:23:48;100485.75;;;30.27;43.87
31062;BME280;17724;53.546;9.974;2022-07-25T14:27:48;100492.00;;;29.74;46.14
31062;BME280;17724;53.546;9.974;2022-07-25T14:31:48;100512.88;;;29.52;47.32
31062;BME280;17724;53.546;9.974;2022-07-25T14:35:49;100524.75;;;29.16;47.89
31062;BME280;17724;53.546;9.974;2022-07-25T14:39:49;100530.91;;;29.26;47.90
31062;BME280;17724;53.546;9.974;2022-07-25T14:43:50;100558.41;;;28.81;47.48
31062;BME280;17724;53.546;9.974;2022-07-25T14:47:50;100574.34;;;28.32;48.17
31062;BME280;17724;53.546;9.974;2022-07-25T14:51:51;100570.03;;;27.55;49.54
31062;BME280;17724;53.546;9.974;2022-07-25T14:55:51;100583.16;;;27.44;50.24
31062;BME280;17724;53.546;9.974;2022-07-25T14:59:52;100587.47;;;26.72;52.53
31062;BME280;17724;53.546;9.974;2022-07-25T15:03:52;100602.63;;;26.64;54.41
31062;BME280;17724;53.546;9.974;2022-07-25T15:07:53;100595.84;;;26.46;55.09
31062;BME280;17724;53.546;9.974;2022-07-25T15:11:53;100618.91;;;26.16;56.31
31062;BME280;17724;53.546;9.974;2022-07-25T15:15:54;100618.81;;;25.93;57.72
31062;BME280;17724;53.546;9.974;2022-07-25T15:19:55;100636.56;;;25.78;58.79
31062;BME280;17724;53.546;9.974;2022-07-25T15:23:55;100643.38;;;25.29;61.18
31062;BME280;17724;53.546;9.974;2022-07-25T15:27:59;100642.63;;;24.61;64.51
31062;BME280;17724;53.546;9.974;2022-07-25T15:32:00;100666.25;;;24.72;64.25
31062;BME280;17724;53.546;9.974;2022-07-25T15:36:02;100699.13;;;24.83;65.29
31062;BME280;17724;53.546;9.974;2022-07-25T15:40:03;100722.28;;;24.65;68.24
31062;BME280;17724;53.546;9.974;2022-07-25T15:44:03;100732.28;;;24.01;75.35
31062;BME280;17724;53.546;9.974;2022-07-25T15:48:05;100764.69;;;23.41;80.84
31062;BME280;17724;53.546;9.974;2022-07-25T15:52:06;100769.50;;;22.35;88.37
31062;BME280;17724;53.546;9.974;2022-07-25T15:56:07;100709.56;;;21.51;96.75
31062;BME280;17724;53.546;9.974;2022-07-25T16:00:09;100727.84;;;21.49;100.00
31062;BME280;17724;53.546;9.974;2022-07-25T16:04:10;100744.81;;;21.17;100.00
31062;BME280;17724;53.546;9.974;2022-07-25T16:08:11;100748.13;;;21.11;100.00
31062;BME280;17724;53.546;9.974;2022-07-25T16:12:11;100746.31;;;21.06;100.00
31062;BME280;17724;53.546;9.974;2022-07-25T16:16:12;100750.91;;;21.02;100.00
31062;BME280;17724;53.546;9.974;2022-07-25T16:20:12;100771.19;;;20.99;100.00
31062;BME280;17724;53.546;9.974;2022-07-25T16:24:13;100742.72;;;20.97;100.00
31062;BME280;17724;53.546;9.974;2022-07-25T16:28:14;100729.72;;;21.01;100.00
31062;BME280;17724;53.546;9.974;2022-07-25T16:32:15;100720.81;;;21.16;100.00
31062;BME280;17724;53.546;9.974;2022-07-25T16:36:16;100733.81;;;21.12;100.00
31062;BME280;17724;53.546;9.974;2022-07-25T16:40:16;100739.25;;;21.00;100.00
31062;BME280;17724;53.546;9.974;2022-07-25T16:44:17;100739.91;;;21.06;100.00
31062;BME280;17724;53.546;9.974;2022-07-25T16:48:17;100732.50;;;21.10;100.00
31062;BME280;17724;53.546;9.974;2022-07-25T16:52:18;100719.97;;;21.25;100.00
31062;BME280;17724;53.546;9.974;2022-07-25T16:56:18;100712.78;;;21.15;100.00
31062;BME280;17724;53.546;9.974;2022-07-25T17:00:19;100718.22;;;21.03;100.00
31062;BME280;17724;53.546;9.974;2022-07-25T17:04:20;100711.78;;;21.11;100.00
31062;BME280;17724;53.546;9.974;2022-07-25T17:08:20;100719.66;;;21.17;100.00
31062;BME280;17724;53.546;9.974;2022-07-25T17:12:20;100723.13;;;21.14;100.00
31062;BME280;17724;53.546;9.974;2022-07-25T17:16:21;100737.59;;;21.08;100.00
31062;BME280;17724;53.546;9.974;2022-07-25T17:20:21;100739.09;;;21.05;100.00
31062;BME280;17724;53.546;9.974;2022-07-25T17:24:21;100751.44;;;21.04;100.00
31062;BME280;17724;53.546;9.974;2022-07-25T17:28:22;100752.72;;;21.24;100.00
31062;BME280;17724;53.546;9.974;2022-07-25T17:32:23;100757.00;;;21.39;100.00
31062;BME280;17724;53.546;9.974;2022-07-25T17:36:23;100757.13;;;21.51;100.00
31062;BME280;17724;53.546;9.974;2022-07-25T17:40:24;100756.19;;;21.38;100.00
31062;BME280;17724;53.546;9.974;2022-07-25T17:44:25;100770.31;;;21.51;100.00
31062;BME280;17724;53.546;9.974;2022-07-25T17:48:25;100761.78;;;21.38;100.00
31062;BME280;17724;53.546;9.974;2022-07-25T17:52:26;100759.28;;;21.46;100.00
31062;BME280;17724;53.546;9.974;2022-07-25T17:56:27;100758.28;;;21.59;100.00
31062;BME280;17724;53.546;9.974;2022-07-25T18:00:27;100769.63;;;21.62;100.00
31062;BME280;17724;53.546;9.974;2022-07-25T18:04:28;100792.16;;;21.66;100.00
31062;BME280;17724;53.546;9.974;2022-07-25T18:08:28;100773.53;;;21.70;100.00
31062;BME280;17724;53.546;9.974;2022-07-25T18:12:34;100776.97;;;21.76;100.00
31062;BME280;17724;53.546;9.974;2022-07-25T18:16:34;100757.84;;;21.78;100.00
31062;BME280;17724;53.546;9.974;2022-07-25T18:20:35;100761.81;;;21.77;100.00
31062;BME280;17724;53.546;9.974;2022-07-25T18:24:38;100770.56;;;21.75;100.00
31062;BME280;17724;53.546;9.974;2022-07-25T18:28:39;100774.03;;;21.72;100.00
31062;BME280;17724;53.546;9.974;2022-07-25T18:32:39;100771.41;;;21.67;100.00
31062;BME280;17724;53.546;9.974;2022-07-25T18:36:40;100775.66;;;21.73;100.00
31062;BME280;17724;53.546;9.974;2022-07-25T18:40:41;100765.44;;;21.77;100.00
31062;BME280;17724;53.546;9.974;2022-07-25T18:44:41;100770.56;;;21.75;100.00
31062;BME280;17724;53.546;9.974;2022-07-25T18:48:43;100773.19;;;21.80;100.00
31062;BME280;17724;53.546;9.974;2022-07-25T18:52:43;100769.22;;;21.81;100.00
31062;BME280;17724;53.546;9.974;2022-07-25T18:56:44;100773.53;;;21.79;100.00
31062;BME280;17724;53.546;9.974;2022-07-25T19:00:44;100780.75;;;21.80;100.00
31062;BME280;17724;53.546;9.974;2022-07-25T19:04:44;100767.56;;;21.80;100.00
31062;BME280;17724;53.546;9.974;2022-07-25T19:08:45;100789.97;;;21.80;100.00
31062;BME280;17724;53.546;9.974;2022-07-25T19:12:47;100796.56;;;21.76;100.00
31062;BME280;17724;53.546;9.974;2022-07-25T19:16:47;100803.19;;;21.71;100.00
31062;BME280;17724;53.546;9.974;2022-07-25T19:20:49;100801.66;;;21.74;100.00
31062;BME280;17724;53.546;9.974;2022-07-25T19:24:49;100815.69;;;21.65;100.00
31062;BME280;17724;53.546;9.974;2022-07-25T19:28:50;100818.03;;;21.63;100.00
31062;BME280;17724;53.546;9.974;2022-07-25T19:32:50;100822.63;;;21.68;100.00
31062;BME280;17724;53.546;9.974;2022-07-25T19:36:51;100834.28;;;21.70;100.00
31062;BME280;17724;53.546;9.974;2022-07-25T19:40:51;100847.16;;;21.71;100.00
31062;BME280;17724;53.546;9.974;2022-07-25T19:44:52;100846.00;;;21.72;100.00
31062;BME280;17724;53.546;9.974;2022-07-25T19:48:52;100846.47;;;21.74;100.00
31062;BME280;17724;53.546;9.974;2022-07-25T19:52:53;100857.50;;;21.70;99.48
31062;BME280;17724;53.546;9.974;2022-07-25T19:56:53;100849.75;;;21.76;100.00
31062;BME280;17724;53.546;9.974;2022-07-25T20:00:54;100863.09;;;21.79;100.00
31062;BME280;17724;53.546;9.974;2022-07-25T20:04:54;100869.84;;;21.78;100.00
31062;BME280;17724;53.546;9.974;2022-07-25T20:08:55;100872.66;;;21.69;100.00
31062;BME280;17724;53.546;9.974;2022-07-25T20:12:57;100875.50;;;21.34;96.86
31062;BME280;17724;53.546;9.974;2022-07-25T20:16:58;100872.19;;;21.50;97.59
31062;BME280;17724;53.546;9.974;2022-07-25T20:20:59;100881.91;;;21.52;98.78
31062;BME280;17724;53.546;9.974;2022-07-25T20:25:00;100878.75;;;21.28;97.07
31062;BME280;17724;53.546;9.974;2022-07-25T20:29:00;100885.69;;;21.39;98.21
31062;BME280;17724;53.546;9.974;2022-07-25T20:33:01;100885.03;;;21.51;98.41
31062;BME280;17724;53.546;9.974;2022-07-25T20:37:01;100893.09;;;21.52;97.84
31062;BME280;17724;53.546;9.974;2022-07-25T20:41:02;100892.44;;;21.47;96.87
31062;BME280;17724;53.546;9.974;2022-07-25T20:45:04;100901.97;;;21.46;95.52
31062;BME280;17724;53.546;9.974;2022-07-25T20:49:05;100904.63;;;21.51;95.24
31062;BME280;17724;53.546;9.974;2022-07-25T20:53:07;100907.09;;;21.35;94.42
31062;BME280;17724;53.546;9.974;2022-07-25T20:57:08;100911.97;;;21.12;92.62